createdAt,value
2019-01-19T00:00:57.726Z,18.5
2019-01-19T00:01:57.562Z,18.5
2019-01-19T00:02:57.645Z,18.5
2019-01-19T00:03:57.695Z,18.5
2019-01-19T00:04:57.549Z,18.5
2019-01-19T00:05:57.925Z,18.5
2019-01-19T00:06:57.657Z,18.5
2019-01-19T00:07:57.594Z,18.5
2019-01-19T00:08:57.673Z,18.5
2019-01-19T00:09:57.603Z,18.5
2019-01-19T00:10:57.755Z,18.5
2019-01-19T00:11:57.653Z,18.5
2019-01-19T00:12:57.693Z,18.5
2019-01-19T00:13:57.602Z,18.5
2019-01-19T00:14:57.789Z,18.5
2019-01-19T00:15:57.775Z,18.5
2019-01-19T00:16:57.663Z,18.5
2019-01-19T00:17:57.803Z,18.5
2019-01-19T00:18:57.888Z,18.5
2019-01-19T00:19:57.720Z,18.5
2019-01-19T00:20:57.562Z,18.5
2019-01-19T00:21:58.027Z,18.5
2019-01-19T00:22:57.912Z,18.5
2019-01-19T00:23:57.627Z,18.5
2019-01-19T00:24:57.891Z,18.5
2019-01-19T00:25:57.657Z,18.5
2019-01-19T00:26:57.792Z,18.5
2019-01-19T00:27:57.885Z,18.5
2019-01-19T00:28:58.300Z,18.5
2019-01-19T00:29:57.842Z,18.5
2019-01-19T00:30:57.941Z,18.5
2019-01-19T00:31:58.185Z,18.5
2019-01-19T00:32:57.867Z,18.5
2019-01-19T00:33:57.787Z,18.5
2019-01-19T00:34:57.687Z,18.5
2019-01-19T00:35:57.611Z,18.5
2019-01-19T00:36:57.813Z,18.5
2019-01-19T00:37:57.654Z,18.5
2019-01-19T00:38:58.074Z,18.5
2019-01-19T00:39:57.746Z,18.5
2019-01-19T00:40:58.125Z,18.5
2019-01-19T00:41:59.454Z,18.5
2019-01-19T00:42:58.664Z,18.5
2019-01-19T00:43:58.478Z,18.5
2019-01-19T00:44:57.820Z,18.5
2019-01-19T00:45:58.002Z,18.5
2019-01-19T00:46:58.074Z,18.5
2019-01-19T00:47:59.450Z,18.5
2019-01-19T00:48:58.014Z,18.5
2019-01-19T00:49:57.490Z,18.25
2019-01-19T00:50:57.618Z,18.25
2019-01-19T00:51:57.778Z,18.25
2019-01-19T00:52:59.135Z,18.25
2019-01-19T00:53:57.541Z,18.25
2019-01-19T00:54:57.670Z,18.25
2019-01-19T00:55:57.799Z,18.25
2019-01-19T00:56:57.512Z,18.25
2019-01-19T00:57:57.862Z,18.25
2019-01-19T00:58:57.659Z,18.25
2019-01-19T00:59:57.522Z,18.25
2019-01-19T01:00:57.943Z,18.25
2019-01-19T01:01:57.727Z,18.25
2019-01-19T01:02:57.522Z,18.25
2019-01-19T01:03:57.703Z,18.25
2019-01-19T01:04:57.827Z,18.25
2019-01-19T01:05:57.559Z,18.25
2019-01-19T01:06:57.641Z,18.25
2019-01-19T01:07:57.619Z,18.25
2019-01-19T01:08:59.391Z,18.25
2019-01-19T01:09:57.651Z,18.25
2019-01-19T01:10:57.890Z,18.25
2019-01-19T01:11:58.012Z,18.25
2019-01-19T01:12:57.614Z,18.25
2019-01-19T01:13:58.058Z,18.25
2019-01-19T01:14:57.718Z,18.25
2019-01-19T01:15:57.901Z,18.25
2019-01-19T01:16:57.691Z,18.25
2019-01-19T01:17:59.391Z,18.25
2019-01-19T01:18:58.045Z,18.25
2019-01-19T01:19:57.962Z,18.25
2019-01-19T01:20:57.746Z,18.25
2019-01-19T01:21:58.048Z,18.25
2019-01-19T01:22:57.970Z,18.25
2019-01-19T01:23:57.769Z,18.25
2019-01-19T01:24:57.807Z,18.25
2019-01-19T01:25:58.160Z,18.25
2019-01-19T01:26:57.786Z,18.25
2019-01-19T01:27:57.799Z,18.25
2019-01-19T01:28:57.473Z,18.25
2019-01-19T01:29:57.812Z,18.25
2019-01-19T01:30:57.671Z,18.25
2019-01-19T01:31:58.010Z,18.25
2019-01-19T01:32:57.683Z,18.25
2019-01-19T01:33:57.516Z,18.25
2019-01-19T01:34:57.966Z,18.25
2019-01-19T01:35:57.760Z,18.25
2019-01-19T01:36:57.872Z,18.25
2019-01-19T01:37:57.494Z,18.25
2019-01-19T01:38:57.657Z,18.25
2019-01-19T01:39:57.708Z,18.25
2019-01-19T01:40:58.022Z,18.25
2019-01-19T01:41:58.089Z,18.25
2019-01-19T01:42:57.931Z,18.25
2019-01-19T01:43:57.455Z,18.25
2019-01-19T01:44:57.581Z,18.25
2019-01-19T01:45:57.667Z,18.25
2019-01-19T01:46:57.705Z,18.25
2019-01-19T01:47:57.734Z,18.25
2019-01-19T01:48:57.668Z,18.25
2019-01-19T01:49:57.380Z,18.25
2019-01-19T01:50:57.584Z,18.25
2019-01-19T01:51:57.640Z,18.25
2019-01-19T01:52:57.687Z,18.25
2019-01-19T01:53:57.674Z,18.25
2019-01-19T01:54:57.647Z,18.25
2019-01-19T01:55:57.659Z,18.25
2019-01-19T01:56:57.558Z,18.25
2019-01-19T01:57:57.553Z,18.25
2019-01-19T01:58:57.713Z,18.25
2019-01-19T01:59:57.701Z,18.25
2019-01-19T02:00:57.676Z,18.25
2019-01-19T02:01:57.744Z,18
2019-01-19T02:02:57.776Z,18
2019-01-19T02:04:58.350Z,18
2019-01-19T02:05:58.557Z,18
2019-01-19T02:06:57.769Z,18
2019-01-19T02:07:57.875Z,18
2019-01-19T02:08:57.918Z,18
2019-01-19T02:09:57.653Z,18
2019-01-19T02:10:57.676Z,18
2019-01-19T02:11:57.541Z,18
2019-01-19T02:12:57.799Z,18
2019-01-19T02:13:57.666Z,18
2019-01-19T02:14:57.828Z,18
2019-01-19T02:15:57.640Z,18
2019-01-19T02:16:57.662Z,18
2019-01-19T02:17:57.443Z,18
2019-01-19T02:18:57.698Z,18
2019-01-19T02:19:57.637Z,18
2019-01-19T02:20:57.893Z,18
2019-01-19T02:21:57.875Z,18
2019-01-19T02:22:57.606Z,18
2019-01-19T02:23:57.523Z,18
2019-01-19T02:24:57.491Z,18
2019-01-19T02:25:57.802Z,18
2019-01-19T02:26:57.678Z,18
2019-01-19T02:27:57.833Z,18
2019-01-19T02:28:57.613Z,18
2019-01-19T02:29:57.764Z,18
2019-01-19T02:30:57.589Z,18
2019-01-19T02:31:57.628Z,18
2019-01-19T02:32:57.661Z,18
2019-01-19T02:33:57.676Z,18
2019-01-19T02:34:57.902Z,18
2019-01-19T02:35:57.496Z,18
2019-01-19T02:36:57.503Z,18
2019-01-19T02:37:57.909Z,18
2019-01-19T02:38:57.773Z,18
2019-01-19T02:39:57.766Z,18
2019-01-19T02:40:57.703Z,18
2019-01-19T02:41:57.572Z,18
2019-01-19T02:42:57.681Z,18
2019-01-19T02:43:57.829Z,18
2019-01-19T02:44:57.516Z,18
2019-01-19T02:45:58.296Z,18
2019-01-19T02:46:58.068Z,18
2019-01-19T02:47:57.763Z,18
2019-01-19T02:48:57.856Z,18
2019-01-19T02:49:57.633Z,18
2019-01-19T02:50:57.584Z,18
2019-01-19T02:51:57.708Z,18
2019-01-19T02:52:57.812Z,18
2019-01-19T02:53:57.968Z,18
2019-01-19T02:54:57.651Z,18
2019-01-19T02:55:58.323Z,18
2019-01-19T02:56:57.774Z,18
2019-01-19T02:57:58.078Z,18
2019-01-19T02:58:57.630Z,18
2019-01-19T02:59:59.496Z,18
2019-01-19T03:00:57.499Z,18
2019-01-19T03:01:57.572Z,18
2019-01-19T03:02:57.645Z,18
2019-01-19T03:03:57.411Z,18
2019-01-19T03:04:58.598Z,18
2019-01-19T03:05:57.597Z,18
2019-01-19T03:06:57.508Z,18
2019-01-19T03:07:57.577Z,18
2019-01-19T03:08:57.681Z,18
2019-01-19T03:09:57.932Z,18
2019-01-19T03:10:57.958Z,18
2019-01-19T03:11:57.576Z,18
2019-01-19T03:12:57.532Z,18
2019-01-19T03:13:57.824Z,17.75
2019-01-19T03:14:57.952Z,18
2019-01-19T03:15:58.025Z,17.75
2019-01-19T03:16:57.565Z,18
2019-01-19T03:17:57.865Z,17.75
2019-01-19T03:18:57.584Z,17.75
2019-01-19T03:19:57.577Z,17.75
2019-01-19T03:20:57.772Z,17.75
2019-01-19T03:21:57.588Z,17.75
2019-01-19T03:22:57.970Z,17.75
2019-01-19T03:23:57.619Z,17.75
2019-01-19T03:24:57.413Z,17.75
2019-01-19T03:25:57.617Z,17.75
2019-01-19T03:26:57.935Z,17.75
2019-01-19T03:27:57.631Z,17.75
2019-01-19T03:28:57.774Z,17.75
2019-01-19T03:29:57.701Z,17.75
2019-01-19T03:30:57.799Z,17.75
2019-01-19T03:31:57.618Z,17.75
2019-01-19T03:32:58.317Z,17.75
2019-01-19T03:33:57.657Z,17.75
2019-01-19T03:34:57.622Z,17.75
2019-01-19T03:36:04.892Z,17.75
2019-01-19T03:36:57.577Z,17.75
2019-01-19T03:37:57.582Z,17.75
2019-01-19T03:38:57.583Z,17.75
2019-01-19T03:39:57.564Z,17.75
2019-01-19T03:40:57.492Z,17.75
2019-01-19T03:41:57.652Z,17.75
2019-01-19T03:42:57.415Z,17.75
2019-01-19T03:43:58.192Z,17.75
2019-01-19T03:44:57.584Z,17.75
2019-01-19T03:45:57.582Z,17.75
2019-01-19T03:46:57.868Z,17.75
2019-01-19T03:47:57.695Z,17.75
2019-01-19T03:48:57.725Z,17.75
2019-01-19T03:49:57.866Z,17.75
2019-01-19T03:50:57.752Z,17.75
2019-01-19T03:51:57.986Z,17.75
2019-01-19T03:52:57.882Z,17.75
2019-01-19T03:53:57.719Z,17.75
2019-01-19T03:54:57.569Z,17.75
2019-01-19T03:55:57.606Z,17.75
2019-01-19T03:56:57.615Z,17.75
2019-01-19T03:57:57.521Z,17.75
2019-01-19T03:58:57.602Z,17.75
2019-01-19T03:59:57.760Z,17.75
2019-01-19T04:00:57.886Z,17.75
2019-01-19T04:01:57.721Z,17.75
2019-01-19T04:02:57.577Z,17.75
2019-01-19T04:03:57.807Z,17.75
2019-01-19T04:04:57.694Z,17.75
2019-01-19T04:05:57.647Z,17.75
2019-01-19T04:07:57.544Z,17.75
2019-01-19T04:08:57.922Z,17.75
2019-01-19T04:09:57.448Z,17.75
2019-01-19T04:10:59.451Z,17.75
2019-01-19T04:11:58.638Z,17.75
2019-01-19T04:12:57.798Z,17.75
2019-01-19T04:13:57.858Z,17.75
2019-01-19T04:14:58.587Z,17.75
2019-01-19T04:15:57.648Z,17.75
2019-01-19T04:16:57.871Z,17.75
2019-01-19T04:17:57.878Z,17.75
2019-01-19T04:18:57.712Z,17.75
2019-01-19T04:19:57.822Z,17.75
2019-01-19T04:20:57.617Z,17.75
2019-01-19T04:21:57.524Z,17.75
2019-01-19T04:22:57.934Z,17.75
2019-01-19T04:23:57.572Z,17.75
2019-01-19T04:24:57.736Z,17.75
2019-01-19T04:25:57.513Z,17.75
2019-01-19T04:26:57.675Z,17.75
2019-01-19T04:27:57.795Z,17.75
2019-01-19T04:28:57.714Z,17.75
2019-01-19T04:29:59.487Z,17.75
2019-01-19T04:30:57.403Z,17.75
2019-01-19T04:31:57.924Z,17.75
2019-01-19T04:32:57.570Z,17.75
2019-01-19T04:33:57.778Z,17.75
2019-01-19T04:34:57.562Z,17.75
2019-01-19T04:35:58.034Z,17.75
2019-01-19T04:36:57.715Z,17.75
2019-01-19T04:37:57.520Z,17.75
2019-01-19T04:38:57.823Z,17.75
2019-01-19T04:39:57.592Z,17.5
2019-01-19T04:40:58.074Z,17.75
2019-01-19T04:41:57.578Z,17.75
2019-01-19T04:42:57.682Z,17.75
2019-01-19T04:43:57.869Z,17.75
2019-01-19T04:44:57.664Z,17.75
2019-01-19T04:45:57.521Z,17.75
2019-01-19T04:46:57.700Z,17.75
2019-01-19T04:47:57.897Z,17.75
2019-01-19T04:48:59.317Z,17.75
2019-01-19T04:49:57.686Z,17.75
2019-01-19T04:50:57.920Z,17.75
2019-01-19T04:51:57.756Z,17.75
2019-01-19T04:52:57.596Z,17.75
2019-01-19T04:53:57.560Z,17.75
2019-01-19T04:54:57.763Z,17.75
2019-01-19T04:55:57.670Z,17.75
2019-01-19T04:56:57.917Z,17.75
2019-01-19T04:57:57.592Z,17.75
2019-01-19T04:58:57.774Z,17.75
2019-01-19T04:59:58.511Z,17.75
2019-01-19T05:00:57.731Z,17.75
2019-01-19T05:01:57.886Z,17.75
2019-01-19T05:02:57.518Z,17.75
2019-01-19T05:03:57.859Z,17.75
2019-01-19T05:04:57.925Z,17.75
2019-01-19T05:05:57.943Z,17.75
2019-01-19T05:06:57.329Z,17.75
2019-01-19T05:07:57.783Z,17.75
2019-01-19T05:08:57.684Z,17.75
2019-01-19T05:09:57.754Z,17.75
2019-01-19T05:10:57.669Z,17.75
2019-01-19T05:11:57.619Z,17.75
2019-01-19T05:12:57.722Z,17.75
2019-01-19T05:13:57.608Z,17.75
2019-01-19T05:14:57.685Z,17.75
2019-01-19T05:15:57.413Z,17.75
2019-01-19T05:16:57.750Z,18
2019-01-19T05:17:57.603Z,18
2019-01-19T05:18:57.323Z,18
2019-01-19T05:19:57.626Z,18
2019-01-19T05:20:57.576Z,18
2019-01-19T05:21:57.685Z,18
2019-01-19T05:22:57.661Z,18
2019-01-19T05:23:57.746Z,18
2019-01-19T05:24:57.626Z,18
2019-01-19T05:25:57.484Z,18
2019-01-19T05:26:57.519Z,18
2019-01-19T05:27:57.766Z,18
2019-01-19T05:29:57.554Z,18
2019-01-19T05:30:59.517Z,18
2019-01-19T05:31:57.669Z,18.25
2019-01-19T05:32:58.042Z,18.25
2019-01-19T05:33:57.596Z,18.25
2019-01-19T05:34:57.392Z,18.25
2019-01-19T05:35:57.976Z,18.25
2019-01-19T05:36:57.476Z,18.25
2019-01-19T05:37:57.540Z,18.25
2019-01-19T05:38:57.857Z,18.25
2019-01-19T05:39:57.765Z,18.25
2019-01-19T05:40:57.654Z,18.25
2019-01-19T05:41:57.513Z,18.25
2019-01-19T05:42:57.524Z,18.25
2019-01-19T05:43:57.995Z,18.25
2019-01-19T05:44:57.386Z,18.25
2019-01-19T05:45:57.625Z,18.25
2019-01-19T05:46:57.851Z,18.25
2019-01-19T05:47:57.644Z,18.25
2019-01-19T05:48:58.048Z,18.5
2019-01-19T05:49:57.539Z,18.5
2019-01-19T05:50:57.439Z,18.5
2019-01-19T05:51:57.531Z,18.5
2019-01-19T05:52:57.945Z,18.5
2019-01-19T05:53:57.741Z,18.5
2019-01-19T05:54:57.761Z,18.5
2019-01-19T05:55:57.814Z,18.5
2019-01-19T05:56:57.963Z,18.5
2019-01-19T05:57:57.789Z,18.5
2019-01-19T05:58:59.386Z,18.5
2019-01-19T05:59:57.601Z,18.5
2019-01-19T06:00:57.704Z,18.5
2019-01-19T06:01:57.430Z,18.5
2019-01-19T06:02:57.630Z,18.5
2019-01-19T06:03:57.532Z,18.5
2019-01-19T06:04:57.573Z,18.5
2019-01-19T06:05:57.926Z,18.5
2019-01-19T06:06:57.622Z,18.5
2019-01-19T06:07:57.325Z,18.5
2019-01-19T06:08:57.977Z,18.5
2019-01-19T06:09:59.337Z,18.75
2019-01-19T06:10:58.898Z,18.5
2019-01-19T06:11:57.992Z,18.75
2019-01-19T06:12:57.647Z,18.75
2019-01-19T06:13:57.425Z,18.75
2019-01-19T06:14:57.578Z,18.75
2019-01-19T06:15:57.344Z,18.75
2019-01-19T06:16:57.729Z,18.75
2019-01-19T06:17:57.606Z,18.75
2019-01-19T06:18:57.863Z,18.75
2019-01-19T06:19:57.465Z,18.75
2019-01-19T06:20:57.948Z,18.75
2019-01-19T06:21:57.380Z,18.75
2019-01-19T06:22:57.777Z,18.75
2019-01-19T06:23:57.732Z,18.75
2019-01-19T06:24:57.618Z,18.75
2019-01-19T06:25:57.496Z,18.75
2019-01-19T06:26:57.747Z,18.75
2019-01-19T06:27:57.564Z,18.75
2019-01-19T06:28:59.297Z,18.75
2019-01-19T06:29:57.563Z,18.75
2019-01-19T06:30:57.372Z,18.75
2019-01-19T06:31:57.748Z,18.75
2019-01-19T06:32:57.839Z,18.75
2019-01-19T06:33:57.520Z,18.75
2019-01-19T06:34:59.253Z,18.75
2019-01-19T06:35:57.752Z,18.75
2019-01-19T06:36:57.615Z,18.75
2019-01-19T06:37:57.431Z,18.75
2019-01-19T06:38:57.483Z,18.75
2019-01-19T06:39:57.600Z,18.75
2019-01-19T06:40:57.764Z,18.75
2019-01-19T06:41:58.088Z,19
2019-01-19T06:42:58.088Z,19
2019-01-19T06:43:57.326Z,19
2019-01-19T06:44:57.476Z,19
2019-01-19T06:45:57.429Z,19
2019-01-19T06:46:57.941Z,19
2019-01-19T06:47:58.707Z,19
2019-01-19T06:48:57.743Z,19
2019-01-19T06:49:57.726Z,19
2019-01-19T06:50:57.645Z,19
2019-01-19T06:51:57.646Z,19
2019-01-19T06:52:57.787Z,19
2019-01-19T06:54:02.129Z,19
2019-01-19T06:54:57.662Z,19
2019-01-19T06:55:57.582Z,19
2019-01-19T06:56:57.607Z,19
2019-01-19T06:57:57.702Z,19
2019-01-19T06:58:57.598Z,19
2019-01-19T06:59:57.606Z,19
2019-01-19T07:00:57.729Z,19
2019-01-19T07:01:57.576Z,19
2019-01-19T07:02:57.335Z,19
2019-01-19T07:03:57.366Z,19
2019-01-19T07:04:57.578Z,19
2019-01-19T07:05:57.757Z,19
2019-01-19T07:07:03.281Z,19
2019-01-19T07:07:57.697Z,19
2019-01-19T07:08:57.853Z,19
2019-01-19T07:09:57.436Z,19
2019-01-19T07:10:57.545Z,19
2019-01-19T07:11:57.487Z,19
2019-01-19T07:12:57.911Z,19
2019-01-19T07:13:59.304Z,19
2019-01-19T07:14:57.492Z,19
2019-01-19T07:15:57.850Z,19
2019-01-19T07:16:57.840Z,19
2019-01-19T07:17:57.819Z,19
2019-01-19T07:18:57.768Z,19
2019-01-19T07:19:58.437Z,19
2019-01-19T07:20:57.592Z,19
2019-01-19T07:21:58.417Z,19
2019-01-19T07:22:57.933Z,19
2019-01-19T07:23:57.887Z,19
2019-01-19T07:24:57.566Z,19
2019-01-19T07:25:57.680Z,19
2019-01-19T07:26:58.226Z,19
2019-01-19T07:27:57.853Z,19
2019-01-19T07:28:57.393Z,19
2019-01-19T07:29:57.488Z,19
2019-01-19T07:30:57.509Z,19
2019-01-19T07:31:57.443Z,19
2019-01-19T07:32:57.673Z,19
2019-01-19T07:33:57.553Z,19
2019-01-19T07:34:57.762Z,19
2019-01-19T07:35:57.678Z,19
2019-01-19T07:36:57.806Z,19
2019-01-19T07:37:57.616Z,19
2019-01-19T07:38:57.487Z,19
2019-01-19T07:39:57.731Z,19
2019-01-19T07:40:57.631Z,19
2019-01-19T07:41:57.794Z,19
2019-01-19T07:42:57.665Z,19
2019-01-19T07:43:58.229Z,19
2019-01-19T07:44:57.758Z,19
2019-01-19T07:45:57.485Z,19
2019-01-19T07:46:58.064Z,19
2019-01-19T07:47:58.087Z,19
2019-01-19T07:48:57.940Z,19
2019-01-19T07:49:57.745Z,19
2019-01-19T07:50:57.777Z,19
2019-01-19T07:51:57.567Z,19
2019-01-19T07:52:57.959Z,19
2019-01-19T07:53:57.383Z,19
2019-01-19T07:54:58.697Z,19
2019-01-19T07:55:57.822Z,19
2019-01-19T07:56:57.831Z,19
2019-01-19T07:57:57.895Z,19
2019-01-19T07:58:57.552Z,19
2019-01-19T07:59:57.541Z,19
2019-01-19T08:00:57.412Z,19
2019-01-19T08:01:57.420Z,19
2019-01-19T08:02:57.540Z,19.25
2019-01-19T08:03:57.396Z,19.25
2019-01-19T08:04:57.503Z,19.25
2019-01-19T08:05:57.603Z,19.25
2019-01-19T08:06:57.511Z,19.25
2019-01-19T08:07:57.629Z,19.25
2019-01-19T08:08:57.899Z,19.25
2019-01-19T08:09:57.831Z,19.25
2019-01-19T08:10:57.398Z,19.25
2019-01-19T08:11:57.403Z,19.25
2019-01-19T08:12:58.364Z,19.25
2019-01-19T08:13:57.742Z,19.25
2019-01-19T08:14:57.590Z,19.25
2019-01-19T08:15:57.660Z,19.25
2019-01-19T08:16:57.517Z,19.25
2019-01-19T08:17:57.254Z,19.25
2019-01-19T08:18:57.593Z,19.25
2019-01-19T08:19:57.750Z,19.25
2019-01-19T08:20:58.133Z,19.25
2019-01-19T08:21:57.827Z,19.25
2019-01-19T08:22:57.544Z,19.25
2019-01-19T08:23:57.926Z,19.25
2019-01-19T08:24:57.384Z,19.25
2019-01-19T08:25:57.469Z,19.25
2019-01-19T08:26:57.946Z,19.25
2019-01-19T08:27:57.643Z,19.25
2019-01-19T08:28:57.831Z,19.25
2019-01-19T08:29:57.976Z,19.25
2019-01-19T08:30:57.661Z,19.25
2019-01-19T08:31:57.490Z,19.25
2019-01-19T08:32:57.966Z,19.25
2019-01-19T08:33:57.378Z,19.25
2019-01-19T08:34:57.688Z,19.25
2019-01-19T08:35:57.670Z,19.25
2019-01-19T08:36:57.643Z,19.25
2019-01-19T08:37:57.929Z,19.25
2019-01-19T08:38:57.743Z,19.25
2019-01-19T08:39:57.394Z,19.25
2019-01-19T08:40:57.475Z,19.25
2019-01-19T08:41:57.769Z,19.25
2019-01-19T08:42:57.304Z,19.25
2019-01-19T08:43:57.662Z,19.5
2019-01-19T08:44:57.771Z,19.5
2019-01-19T08:45:57.452Z,19.25
2019-01-19T08:46:57.677Z,19.5
2019-01-19T08:47:57.751Z,19.5
2019-01-19T08:48:57.304Z,19.5
2019-01-19T08:49:57.595Z,19.5
2019-01-19T08:50:57.586Z,19.25
2019-01-19T08:51:57.618Z,19.25
2019-01-19T08:52:57.279Z,19.5
2019-01-19T08:53:57.542Z,19.5
2019-01-19T08:54:58.602Z,19.5
2019-01-19T08:55:57.722Z,19.5
2019-01-19T08:56:58.046Z,19.5
2019-01-19T08:57:57.471Z,19.25
2019-01-19T08:58:57.355Z,19.25
2019-01-19T08:59:57.448Z,19.5
2019-01-19T09:00:57.870Z,19.5
2019-01-19T09:01:57.377Z,19.5
2019-01-19T09:02:58.401Z,19.5
2019-01-19T09:03:59.364Z,19.5
2019-01-19T09:04:57.431Z,19.5
2019-01-19T09:05:57.973Z,19.5
2019-01-19T09:06:57.414Z,19.5
2019-01-19T09:07:57.351Z,19.5
2019-01-19T09:08:57.381Z,19.5
2019-01-19T09:09:57.391Z,19.5
2019-01-19T09:10:57.142Z,19.5
2019-01-19T09:11:57.733Z,19.5
2019-01-19T09:12:57.831Z,19.5
2019-01-19T09:13:57.352Z,19.5
2019-01-19T09:14:57.313Z,19.5
2019-01-19T09:15:57.390Z,19.5
2019-01-19T09:16:58.371Z,19.5
2019-01-19T09:17:58.262Z,19.5
2019-01-19T09:18:57.730Z,19.5
2019-01-19T09:19:57.732Z,19.5
2019-01-19T09:20:57.459Z,19.5
2019-01-19T09:21:57.442Z,19.5
2019-01-19T09:22:57.853Z,19.5
2019-01-19T09:23:58.326Z,19.5
2019-01-19T09:24:57.566Z,19.5
2019-01-19T09:25:58.355Z,19.5
2019-01-19T09:26:57.756Z,19.5
2019-01-19T09:27:57.983Z,19.5
2019-01-19T09:28:57.455Z,19.5
2019-01-19T09:29:57.803Z,19.5
2019-01-19T09:30:57.517Z,19.5
2019-01-19T09:31:57.862Z,19.5
2019-01-19T09:32:57.807Z,19.5
2019-01-19T09:33:57.410Z,19.5
2019-01-19T09:34:57.527Z,19.5
2019-01-19T09:35:57.517Z,19.5
2019-01-19T09:36:57.396Z,19.5
2019-01-19T09:37:58.816Z,19.5
2019-01-19T09:38:58.015Z,19.5
2019-01-19T09:39:57.841Z,19.5
2019-01-19T09:41:01.370Z,19.5
2019-01-19T09:41:57.328Z,19.5
2019-01-19T09:42:57.736Z,19.5
2019-01-19T09:43:58.098Z,19.5
2019-01-19T09:44:57.453Z,19.5
2019-01-19T09:45:57.384Z,19.5
2019-01-19T09:46:58.153Z,19.5
2019-01-19T09:47:58.719Z,19.5
2019-01-19T09:48:57.658Z,19.5
2019-01-19T09:49:57.533Z,19.5
2019-01-19T09:50:57.800Z,19.5
2019-01-19T09:51:57.637Z,19.5
2019-01-19T09:52:58.249Z,19.5
2019-01-19T09:53:57.443Z,19.5
2019-01-19T09:54:59.738Z,19.5
2019-01-19T09:55:57.676Z,19.5
2019-01-19T09:56:57.701Z,19.5
2019-01-19T09:57:58.024Z,19.5
2019-01-19T09:58:58.089Z,19.5
2019-01-19T09:59:57.839Z,19.5
2019-01-19T10:01:00.138Z,19.5
2019-01-19T10:01:57.900Z,19.5
2019-01-19T10:02:57.708Z,19.5
2019-01-19T10:03:57.683Z,19.5
2019-01-19T10:04:57.673Z,19.5
2019-01-19T10:05:57.626Z,19.5
2019-01-19T10:06:57.769Z,19.5
2019-01-19T10:07:57.418Z,19.5
2019-01-19T10:08:57.260Z,19.5
2019-01-19T10:09:57.484Z,19.5
2019-01-19T10:10:57.555Z,19.5
2019-01-19T10:11:59.498Z,19.5
2019-01-19T10:12:57.426Z,19.5
2019-01-19T10:13:57.812Z,19.5
2019-01-19T10:14:57.845Z,19.5
2019-01-19T10:15:57.747Z,19.5
2019-01-19T10:16:57.232Z,19.5
2019-01-19T10:17:57.430Z,19.5
2019-01-19T10:18:57.512Z,19.5
2019-01-19T10:19:57.369Z,19.5
2019-01-19T10:20:57.313Z,19.5
2019-01-19T10:21:57.433Z,19.5
2019-01-19T10:22:57.617Z,19.5
2019-01-19T10:23:57.413Z,19.5
2019-01-19T10:24:57.385Z,19.5
2019-01-19T10:25:57.556Z,19.5
2019-01-19T10:26:57.811Z,19.5
2019-01-19T10:27:57.676Z,19.5
2019-01-19T10:28:57.585Z,19.5
2019-01-19T10:29:57.232Z,19.5
2019-01-19T10:30:57.726Z,19.5
2019-01-19T10:31:57.701Z,19.5
2019-01-19T10:32:57.678Z,19.5
2019-01-19T10:33:57.617Z,19.5
2019-01-19T10:34:57.541Z,19.5
2019-01-19T10:35:57.641Z,19.5
2019-01-19T10:36:58.173Z,19.5
2019-01-19T10:37:58.042Z,19.5
2019-01-19T10:38:57.640Z,19.5
2019-01-19T10:39:57.582Z,19.5
2019-01-19T10:40:58.018Z,19.75
2019-01-19T10:41:57.625Z,19.75
2019-01-19T10:42:57.386Z,19.75
2019-01-19T10:43:57.656Z,19.75
2019-01-19T10:44:57.703Z,19.75
2019-01-19T10:45:57.874Z,19.75
2019-01-19T10:46:57.895Z,19.75
2019-01-19T10:47:57.660Z,19.75
2019-01-19T10:48:57.456Z,19.75
2019-01-19T10:49:57.739Z,19.75
2019-01-19T10:50:57.428Z,19.75
2019-01-19T10:51:59.858Z,19.75
2019-01-19T10:52:57.546Z,19.75
2019-01-19T10:53:57.701Z,19.75
2019-01-19T10:54:57.661Z,19.75
2019-01-19T10:55:57.811Z,19.75
2019-01-19T10:56:57.490Z,19.75
2019-01-19T10:57:57.376Z,19.75
2019-01-19T10:58:57.821Z,19.75
2019-01-19T10:59:57.632Z,19.75
2019-01-19T11:00:57.671Z,19.75
2019-01-19T11:01:57.929Z,19.75
2019-01-19T11:02:58.032Z,19.75
2019-01-19T11:03:57.343Z,19.75
2019-01-19T11:04:58.392Z,19.75
2019-01-19T11:05:57.690Z,19.75
2019-01-19T11:06:57.775Z,19.75
2019-01-19T11:08:04.303Z,19.75
2019-01-19T11:08:57.268Z,19.75
2019-01-19T11:09:58.386Z,19.75
2019-01-19T11:10:57.844Z,19.75
2019-01-19T11:11:57.357Z,19.75
2019-01-19T11:12:58.020Z,19.75
2019-01-19T11:13:57.348Z,19.75
2019-01-19T11:14:59.556Z,19.75
2019-01-19T11:15:57.475Z,19.75
2019-01-19T11:16:57.643Z,19.75
2019-01-19T11:17:57.525Z,19.75
2019-01-19T11:18:57.922Z,19.75
2019-01-19T11:19:57.295Z,19.75
2019-01-19T11:20:57.816Z,19.75
2019-01-19T11:21:57.370Z,19.75
2019-01-19T11:22:58.139Z,19.75
2019-01-19T11:23:57.401Z,20
2019-01-19T11:24:57.182Z,20
2019-01-19T11:25:57.961Z,20
2019-01-19T11:26:57.874Z,20
2019-01-19T11:27:57.944Z,20
2019-01-19T11:28:58.006Z,20
2019-01-19T11:29:57.391Z,20
2019-01-19T11:30:57.718Z,20
2019-01-19T11:31:58.409Z,20
2019-01-19T11:32:58.231Z,20
2019-01-19T11:33:57.483Z,20
2019-01-19T11:34:57.418Z,20
2019-01-19T11:35:57.601Z,20
2019-01-19T11:36:57.821Z,20
2019-01-19T11:37:57.387Z,20
2019-01-19T11:38:57.686Z,20
2019-01-19T11:39:57.818Z,20
2019-01-19T11:40:57.909Z,20
2019-01-19T11:41:57.878Z,20
2019-01-19T11:42:58.051Z,20
2019-01-19T11:43:58.046Z,20
2019-01-19T11:44:57.364Z,20
2019-01-19T11:45:57.795Z,20
2019-01-19T11:46:58.164Z,20
2019-01-19T11:47:57.362Z,20
2019-01-19T11:48:57.166Z,20
2019-01-19T11:49:57.672Z,20
2019-01-19T11:50:57.679Z,20
2019-01-19T11:51:57.626Z,20
2019-01-19T11:52:57.643Z,20
2019-01-19T11:53:57.656Z,20
2019-01-19T11:54:57.704Z,20
2019-01-19T11:55:58.035Z,20
2019-01-19T11:56:57.418Z,20
2019-01-19T11:57:57.756Z,20
2019-01-19T11:58:58.001Z,20
2019-01-19T11:59:57.421Z,20.25
2019-01-19T12:00:57.511Z,20
2019-01-19T12:01:57.333Z,20.25
2019-01-19T12:02:57.434Z,20.25
2019-01-19T12:03:57.792Z,20.25
2019-01-19T12:04:57.223Z,20.25
2019-01-19T12:05:57.838Z,20.25
2019-01-19T12:06:58.417Z,20.25
2019-01-19T12:07:58.229Z,20.25
2019-01-19T12:08:57.898Z,20.25
2019-01-19T12:09:57.945Z,20.25
2019-01-19T12:10:57.569Z,20.25
2019-01-19T12:11:58.380Z,20.25
2019-01-19T12:12:59.016Z,20.25
2019-01-19T12:13:58.103Z,20.25
2019-01-19T12:14:57.375Z,20.25
2019-01-19T12:15:57.262Z,20.25
2019-01-19T12:16:57.260Z,20.25
2019-01-19T12:17:58.013Z,20.25
2019-01-19T12:18:57.783Z,20.25
2019-01-19T12:19:57.711Z,20.25
2019-01-19T12:20:58.475Z,20.25
2019-01-19T12:21:57.260Z,20.25
2019-01-19T12:22:57.731Z,20.25
2019-01-19T12:23:57.645Z,20.25
2019-01-19T12:24:58.061Z,20.25
2019-01-19T12:25:58.098Z,20.25
2019-01-19T12:26:57.397Z,20.25
2019-01-19T12:27:58.438Z,20.25
2019-01-19T12:28:57.456Z,20.25
2019-01-19T12:29:57.619Z,20.25
2019-01-19T12:30:57.784Z,20.25
2019-01-19T12:31:57.914Z,20.25
2019-01-19T12:32:57.863Z,20.25
2019-01-19T12:33:58.331Z,20.25
2019-01-19T12:34:58.868Z,20.25
2019-01-19T12:35:58.341Z,20.25
2019-01-19T12:36:57.610Z,20.25
2019-01-19T12:37:57.623Z,20.25
2019-01-19T12:38:57.863Z,20.25
2019-01-19T12:39:57.940Z,20.25
2019-01-19T12:40:57.647Z,20.25
2019-01-19T12:41:58.186Z,20.25
2019-01-19T12:42:57.322Z,20.25
2019-01-19T12:43:57.443Z,20.25
2019-01-19T12:44:57.682Z,20.25
2019-01-19T12:45:57.180Z,20.25
2019-01-19T12:46:57.652Z,20.25
2019-01-19T12:47:57.596Z,20.25
2019-01-19T12:48:57.477Z,20.25
2019-01-19T12:49:58.329Z,20.25
2019-01-19T12:50:57.686Z,20.25
2019-01-19T12:51:58.174Z,20.25
2019-01-19T12:52:57.653Z,20.25
2019-01-19T12:53:57.776Z,20.25
2019-01-19T12:54:57.443Z,20.25
2019-01-19T12:55:57.331Z,20.25
2019-01-19T12:56:58.293Z,20.25
2019-01-19T12:57:58.495Z,20.25
2019-01-19T12:58:58.581Z,20.25
2019-01-19T12:59:59.482Z,20.25
2019-01-19T13:00:57.554Z,20.25
2019-01-19T13:01:57.358Z,20.25
2019-01-19T13:02:57.673Z,20.25
2019-01-19T13:03:57.636Z,20.25
2019-01-19T13:04:57.330Z,20.25
2019-01-19T13:05:57.464Z,20.25
2019-01-19T13:06:57.632Z,20.25
2019-01-19T13:07:57.946Z,20.25
2019-01-19T13:08:57.639Z,20.25
2019-01-19T13:09:58.067Z,20.25
2019-01-19T13:10:57.680Z,20.25
2019-01-19T13:11:58.872Z,20.25
2019-01-19T13:12:57.695Z,20.25
2019-01-19T13:14:03.663Z,20.25
2019-01-19T13:14:57.521Z,20.25
2019-01-19T13:15:57.408Z,20.25
2019-01-19T13:16:57.795Z,20.25
2019-01-19T13:17:57.751Z,20
2019-01-19T13:18:58.042Z,20
2019-01-19T13:19:57.529Z,20
2019-01-19T13:20:57.290Z,20
2019-01-19T13:21:57.892Z,20
2019-01-19T13:22:57.567Z,20